DAL1477 KDCA-KCVG
Flight info
| Callsign | DAL1477 |
|---|---|
| Flight time | N/A |
| Altitude | 32000 |
| Route | REBLL5 OTTTO COLNS GAVNN7 |
| Aircraft | B738/M-SDE2E3FGHIRWXY/LB1 |
Departure
| Time | 2026-04-30 02:42 |
|---|---|
| Airport | Ronald Reagan Washington National Airport (KDCA) |
Arrival
| Time | N/A |
|---|---|
| Airport | Cincinnati Northern Kentucky International Airport (KCVG) |
| Time | Latitude | Longitude | Altitude | Speed | Heading |
|---|---|---|---|---|---|
| 2026-04-30 01:54 | 38.85359 | -77.04150 | 12 ft | 0 kts | 315° |
| 2026-04-30 02:27 | 38.85350 | -77.04140 | 26 ft | 2 kts | 335° |
| 2026-04-30 02:28 | 38.85334 | -77.04134 | 25 ft | 2 kts | 6° |
| 2026-04-30 02:28 | 38.85318 | -77.04141 | 23 ft | 2 kts | 36° |
| 2026-04-30 02:28 | 38.85307 | -77.04156 | 24 ft | 2 kts | 58° |
| 2026-04-30 02:28 | 38.85302 | -77.04167 | 26 ft | 1 kts | 71° |
| 2026-04-30 02:29 | 38.85301 | -77.04168 | 26 ft | 0 kts | 72° |
| 2026-04-30 02:37 | 38.85307 | -77.04145 | 24 ft | 6 kts | 73° |
| 2026-04-30 02:37 | 38.85322 | -77.04082 | 22 ft | 10 kts | 73° |
| 2026-04-30 02:37 | 38.85377 | -77.04001 | 21 ft | 15 kts | 8° |
| 2026-04-30 02:37 | 38.85485 | -77.04013 | 21 ft | 16 kts | 352° |
| 2026-04-30 02:38 | 38.85563 | -77.03982 | 24 ft | 11 kts | 43° |
| 2026-04-30 02:38 | 38.85633 | -77.03966 | 23 ft | 10 kts | 356° |
| 2026-04-30 02:38 | 38.85706 | -77.03972 | 26 ft | 12 kts | 353° |
| 2026-04-30 02:38 | 38.85806 | -77.03983 | 25 ft | 17 kts | 356° |
| 2026-04-30 02:39 | 38.85941 | -77.03980 | 23 ft | 20 kts | 15° |
| 2026-04-30 02:39 | 38.85994 | -77.03960 | 22 ft | 0 kts | 18° |
| 2026-04-30 02:40 | 38.86008 | -77.03955 | 21 ft | 8 kts | 17° |
| 2026-04-30 02:41 | 38.86095 | -77.03910 | 19 ft | 15 kts | 44° |
| 2026-04-30 02:41 | 38.86081 | -77.03873 | 19 ft | 8 kts | 158° |
| 2026-04-30 02:41 | 38.85908 | -77.03852 | 24 ft | 54 kts | 175° |
| 2026-04-30 02:41 | 38.85319 | -77.03793 | 18 ft | 116 kts | 175° |
| 2026-04-30 02:42 | 38.84343 | -77.03697 | 95 ft | 161 kts | 175° |
| 2026-04-30 02:42 | 38.83171 | -77.03604 | 604 ft | 176 kts | 176° |
| 2026-04-30 02:42 | 38.81893 | -77.03532 | 1279 ft | 185 kts | 181° |
| 2026-04-30 02:42 | 38.80642 | -77.03455 | 2212 ft | 182 kts | 184° |
| 2026-04-30 02:43 | 38.79354 | -77.03429 | 2974 ft | 186 kts | 188° |
| 2026-04-30 02:43 | 38.78079 | -77.03616 | 3794 ft | 185 kts | 193° |
| 2026-04-30 02:43 | 38.77114 | -77.03755 | 4332 ft | 190 kts | 193° |